To NAV CANADA Home Page Login to a new session Search on AWWS site Feedback and Comments Disclaimer Vers la page française équivalente Tips FAQ What's new on the site To the Forecasts and Observations / NOTAM section To "File a Flight Plan" website Publications and other links Update of the User's profile FIC Telephone Numbers My Weather Data Folder Route Weather Data Regional Weather Data Local Weather Data To the Forecasts and Observations / NOTAM section
Request Generated 03/29/2015 at 13:40:36 UTC . Weather information available at that time is displayed.

METAR/TAF

MAYO/YT    

METAR CYMA 291300Z 02005KT 20SM SCT040 OVC100 01/M06 A2948 RMK SC3AS5
SLP008=
METAR CYMA 291200Z 01004KT 360V110 20SM SCT050 OVC140 01/M06 A2949
RMK SC4AS4 CLIMAT 1.8/-0.3/0.0 SOG 31 SLP011=
METAR CYMA 291100Z 36007KT 20SM SCT050 OVC140 01/M06 A2949 RMK SC4AC4
SLP013=

TAF CYMA 291138Z 2912/2924 02006KT P6SM SCT040 BKN080 TEMPO 2912/2920
3SM -SN BR BKN030
FM292000 02006KT P6SM SCT040 BKN120 TEMPO 2920/2924 BKN040
RMK NXT FCST BY 291800Z=
Your time UTC time
Weather data provided by Environment Canada and NAV CANADA